Time;durP1;ratioP1;P1;durP2;ratioP2;P2;SDS_P1;SDS_P2;PMS_P1;PMS_P2;Temp;Humidity;BMP_temperature;BMP_pressure;BME280_temperature;BME280_humidity;BME280_pressure;Samples;Min_cycle;Max_cycle;Signal;HPM_P1;HPM_P2
2021/08/02 00:01:26;;;;;;;12.43;9.40;;;15.00;99.90;;;;;;5087670;28;20458;-51
2021/08/02 00:04:00;;;;;;;10.90;8.37;;;14.90;99.90;;;;;;5079664;28;20534;-51
2021/08/02 00:06:34;;;;;;;15.33;10.47;;;14.90;99.90;;;;;;5078796;28;20555;-51
2021/08/02 00:09:04;;;;;;;12.07;9.53;;;14.80;99.90;;;;;;5073678;28;20565;-52
2021/08/02 00:11:39;;;;;;;11.93;9.33;;;14.70;99.90;;;;;;5081146;28;20454;-52
2021/08/02 00:14:08;;;;;;;10.10;8.37;;;14.60;99.90;;;;;;5072799;28;20462;-51
2021/08/02 00:16:37;;;;;;;10.77;8.33;;;14.60;99.90;;;;;;5077083;28;20544;-52
2021/08/02 00:19:05;;;;;;;12.67;9.40;;;14.60;99.90;;;;;;5085187;28;21114;-52
2021/08/02 00:21:32;;;;;;;20.37;12.17;;;14.50;99.90;;;;;;5079870;28;20532;-53
2021/08/02 00:24:00;;;;;;;15.30;10.83;;;14.40;99.90;;;;;;5079989;28;20446;-52
2021/08/02 00:26:27;;;;;;;18.10;10.90;;;14.30;99.90;;;;;;5071626;28;20486;-52
2021/08/02 00:28:57;;;;;;;14.70;10.57;;;14.30;99.90;;;;;;5070497;28;21160;-52
2021/08/02 00:31:24;;;;;;;14.40;9.90;;;14.30;99.90;;;;;;5071316;28;20538;-52
2021/08/02 00:33:51;;;;;;;18.53;9.47;;;14.20;99.90;;;;;;5074382;28;20515;-52
2021/08/02 00:36:25;;;;;;;14.70;10.63;;;14.30;99.90;;;;;;5079302;28;20555;-53
2021/08/02 00:38:58;;;;;;;14.60;10.33;;;14.30;99.90;;;;;;5084544;28;20437;-52
2021/08/02 00:41:50;;;;;;;13.70;9.90;;;14.20;99.90;;;;;;5073210;28;20458;-53
2021/08/02 00:44:49;;;;;;;18.60;10.20;;;14.20;99.90;;;;;;5072584;28;20443;-53
2021/08/02 00:47:19;;;;;;;15.60;9.50;;;14.10;99.90;;;;;;5074798;28;20486;-53
2021/08/02 00:49:51;;;;;;;14.13;10.23;;;14.10;99.90;;;;;;5079731;28;21011;-53
2021/08/02 00:52:22;;;;;;;16.47;10.40;;;14.10;99.90;;;;;;5076019;28;20500;-52
2021/08/02 00:54:50;;;;;;;13.67;9.40;;;14.10;99.90;;;;;;5087828;28;20466;-53
2021/08/02 00:57:22;;;;;;;16.20;10.20;;;14.20;99.90;;;;;;5082741;28;20535;-52
2021/08/02 00:59:57;;;;;;;12.87;9.17;;;14.20;99.90;;;;;;5081945;28;20439;-52
2021/08/02 01:02:26;;;;;;;10.83;8.00;;;14.20;99.90;;;;;;5079161;28;20530;-51
2021/08/02 01:04:55;;;;;;;12.80;8.57;;;14.20;99.90;;;;;;5075722;28;20482;-51
2021/08/02 01:07:22;;;;;;;12.80;8.13;;;14.20;99.90;;;;;;5081771;28;20490;-51
2021/08/02 01:09:51;;;;;;;12.80;9.13;;;14.20;99.90;;;;;;5077826;28;20567;-51
2021/08/02 01:12:21;;;;;;;12.03;9.30;;;14.20;99.90;;;;;;5076791;28;20465;-51
2021/08/02 01:14:50;;;;;;;13.20;8.70;;;14.20;99.90;;;;;;5079937;28;20524;-51
2021/08/02 01:17:17;;;;;;;13.60;9.00;;;14.20;99.90;;;;;;5077525;28;20523;-51
2021/08/02 01:19:45;;;;;;;14.70;9.80;;;14.20;99.90;;;;;;5084961;28;20436;-51
2021/08/02 01:22:22;;;;;;;16.60;10.50;;;14.20;99.90;;;;;;5062898;28;20451;-51
2021/08/02 01:24:49;;;;;;;19.50;10.67;;;14.10;99.90;;;;;;5069934;28;20963;-51
2021/08/02 01:28:12;;;;;;;18.23;11.67;;;14.00;99.90;;;;;;5074675;28;21047;-51
2021/08/02 01:30:39;;;;;;;18.60;11.90;;;14.00;99.90;;;;;;5001486;28;20497;-51
2021/08/02 01:33:06;;;;;;;22.93;11.93;;;14.00;99.90;;;;;;4994445;28;20462;-51
2021/08/02 01:35:33;;;;;;;16.90;11.00;;;14.00;99.90;;;;;;5043168;28;20873;-52
2021/08/02 01:38:02;;;;;;;20.07;11.60;;;14.00;99.90;;;;;;5084376;28;20470;-53
2021/08/02 01:40:29;;;;;;;17.93;11.80;;;13.90;99.90;;;;;;5092296;28;20875;-51
2021/08/02 01:42:57;;;;;;;17.70;12.07;;;14.00;99.90;;;;;;5079468;28;20454;-53
2021/08/02 01:45:24;;;;;;;21.10;13.00;;;13.90;99.90;;;;;;5076158;28;20464;-52
2021/08/02 01:48:00;;;;;;;20.93;12.87;;;13.90;99.90;;;;;;5079624;28;20514;-51
2021/08/02 01:50:36;;;;;;;18.23;12.30;;;13.90;99.90;;;;;;5071555;28;20514;-52
2021/08/02 01:53:12;;;;;;;20.57;11.60;;;13.90;99.90;;;;;;5070635;28;20823;-52
2021/08/02 01:55:40;;;;;;;18.40;12.40;;;13.90;99.90;;;;;;5054970;28;20452;-53
2021/08/02 01:58:09;;;;;;;16.03;10.93;;;13.90;99.90;;;;;;5051424;28;20505;-53
2021/08/02 02:00:39;;;;;;;17.87;11.90;;;13.90;99.90;;;;;;5065071;28;20500;-52
2021/08/02 02:03:11;;;;;;;17.83;10.83;;;13.90;99.90;;;;;;5071146;28;21002;-53
2021/08/02 02:05:40;;;;;;;16.87;11.07;;;13.80;99.90;;;;;;5051675;28;21011;-52
2021/08/02 02:08:14;;;;;;;18.80;11.70;;;13.80;99.90;;;;;;5051887;28;20440;-52
2021/08/02 02:10:46;;;;;;;16.47;11.40;;;13.90;99.90;;;;;;5065570;28;20535;-52
2021/08/02 02:13:16;;;;;;;16.03;10.50;;;13.70;99.90;;;;;;5070766;28;20994;-53
2021/08/02 02:15:47;;;;;;;18.57;11.33;;;13.60;99.90;;;;;;5058050;28;20447;-53
2021/08/02 02:18:16;;;;;;;17.70;10.00;;;13.50;99.90;;;;;;5051759;28;20447;-52
2021/08/02 02:20:45;;;;;;;17.07;10.17;;;13.60;99.90;;;;;;5065398;28;20894;-53
2021/08/02 02:23:14;;;;;;;16.43;10.47;;;13.60;99.90;;;;;;5070388;28;20577;-53
2021/08/02 02:25:43;;;;;;;14.53;9.67;;;13.60;99.90;;;;;;5059666;28;20505;-53
2021/08/02 02:28:13;;;;;;;14.23;9.90;;;13.60;99.90;;;;;;5053677;28;21031;-53
2021/08/02 02:30:42;;;;;;;15.53;10.20;;;13.60;99.90;;;;;;5058594;28;20480;-51
2021/08/02 02:33:12;;;;;;;17.63;10.40;;;13.50;99.90;;;;;;5062476;28;20502;-53
2021/08/02 02:35:41;;;;;;;14.10;9.23;;;13.50;99.90;;;;;;5050950;28;20440;-52
2021/08/02 02:38:09;;;;;;;13.70;9.27;;;13.40;99.90;;;;;;5050672;28;20539;-53
2021/08/02 02:40:39;;;;;;;12.40;8.30;;;13.40;99.90;;;;;;5050692;28;20436;-53
2021/08/02 02:43:06;;;;;;;12.40;8.60;;;13.40;99.90;;;;;;5069097;28;20529;-51
2021/08/02 02:45:35;;;;;;;14.77;8.40;;;13.40;99.90;;;;;;5051197;28;20444;-52
2021/08/02 02:48:04;;;;;;;12.23;8.57;;;13.40;99.90;;;;;;5050670;28;20472;-54
2021/08/02 02:50:31;;;;;;;13.10;8.20;;;13.30;99.90;;;;;;5066589;28;20612;-52
2021/08/02 02:53:00;;;;;;;16.07;9.10;;;13.20;99.90;;;;;;5069058;28;20447;-52
2021/08/02 02:55:28;;;;;;;14.97;9.47;;;13.20;99.90;;;;;;5050427;28;20460;-52
2021/08/02 02:57:57;;;;;;;19.70;9.50;;;13.10;99.90;;;;;;5050773;28;20466;-52
2021/08/02 03:00:24;;;;;;;16.47;8.40;;;13.10;99.90;;;;;;5050664;28;20978;-53
2021/08/02 03:02:55;;;;;;;18.50;9.90;;;13.10;99.90;;;;;;5050200;28;20447;-52
2021/08/02 03:05:24;;;;;;;15.37;8.93;;;13.00;99.90;;;;;;5066231;28;20450;-52
2021/08/02 03:07:55;;;;;;;20.00;9.70;;;13.00;99.90;;;;;;5068993;28;20466;-53
2021/08/02 03:10:24;;;;;;;14.33;9.50;;;12.90;99.90;;;;;;5069257;28;20580;-54
2021/08/02 03:12:52;;;;;;;13.50;9.10;;;13.00;99.90;;;;;;5069109;28;20446;-51
2021/08/02 03:15:21;;;;;;;15.13;9.97;;;13.00;99.90;;;;;;5055260;28;20534;-51
2021/08/02 03:17:49;;;;;;;13.23;8.90;;;13.00;99.90;;;;;;5055856;28;20475;-52
2021/08/02 03:20:16;;;;;;;16.57;9.40;;;13.00;99.90;;;;;;5075360;22;20498;-57
2021/08/02 03:22:47;;;;;;;13.60;9.23;;;13.00;99.90;;;;;;5050267;28;20517;-58
2021/08/02 03:25:28;;;;;;;12.97;9.00;;;13.00;99.90;;;;;;5033000;28;20861;-57
2021/08/02 03:27:59;;;;;;;14.53;9.13;;;13.00;99.90;;;;;;5042834;28;20513;-57
2021/08/02 03:30:31;;;;;;;13.40;8.57;;;13.00;99.90;;;;;;5050216;28;20488;-57
2021/08/02 03:33:00;;;;;;;12.30;8.23;;;13.00;99.90;;;;;;5050222;28;20443;-57
2021/08/02 03:35:29;;;;;;;11.60;7.87;;;12.90;99.90;;;;;;5051436;28;20948;-57
2021/08/02 03:37:56;;;;;;;12.70;9.13;;;12.90;99.90;;;;;;5054646;28;20444;-57
2021/08/02 03:40:23;;;;;;;13.40;8.80;;;12.90;99.90;;;;;;5054166;28;20538;-57
2021/08/02 03:42:51;;;;;;;11.40;8.10;;;12.90;99.90;;;;;;5054190;28;20497;-57
2021/08/02 03:45:19;;;;;;;12.40;8.40;;;12.90;99.90;;;;;;5053624;28;20535;-57
2021/08/02 03:47:48;;;;;;;14.30;9.33;;;12.90;99.90;;;;;;5053649;28;20457;-57
2021/08/02 03:50:16;;;;;;;13.30;8.90;;;12.90;99.90;;;;;;5054016;28;20486;-57
2021/08/02 03:52:43;;;;;;;15.03;8.50;;;13.00;99.90;;;;;;5054071;28;20455;-57
2021/08/02 03:55:12;;;;;;;13.37;8.73;;;12.90;99.90;;;;;;5054112;28;20444;-57
2021/08/02 03:57:39;;;;;;;15.20;8.87;;;12.90;99.90;;;;;;5054057;28;20858;-57
2021/08/02 04:00:07;;;;;;;12.87;8.50;;;13.00;99.90;;;;;;5050722;28;20469;-57
2021/08/02 04:02:34;;;;;;;11.73;8.17;;;13.00;99.90;;;;;;5053831;28;20452;-57
2021/08/02 04:05:03;;;;;;;13.40;9.00;;;13.00;99.90;;;;;;5053889;28;20501;-57
2021/08/02 04:07:30;;;;;;;13.30;8.60;;;13.00;99.90;;;;;;5053868;28;20451;-60
2021/08/02 04:09:57;;;;;;;11.50;7.97;;;13.00;99.90;;;;;;5053625;28;20859;-57
2021/08/02 04:12:24;;;;;;;12.43;8.53;;;13.00;99.90;;;;;;5053750;28;20451;-57
2021/08/02 04:14:51;;;;;;;12.03;8.10;;;13.00;99.90;;;;;;5054002;28;20448;-57
2021/08/02 04:17:18;;;;;;;14.93;8.20;;;13.10;99.90;;;;;;5053321;28;20458;-57
2021/08/02 04:19:45;;;;;;;12.17;8.50;;;13.00;99.90;;;;;;5053273;28;20497;-57
2021/08/02 04:22:15;;;;;;;11.20;7.43;;;13.10;99.90;;;;;;5053306;28;20505;-57
2021/08/02 04:24:42;;;;;;;10.90;7.60;;;13.10;99.90;;;;;;5053839;28;20452;-57
2021/08/02 04:27:09;;;;;;;12.10;7.97;;;13.20;99.90;;;;;;5053580;28;20444;-57
2021/08/02 04:29:36;;;;;;;13.27;8.30;;;13.20;99.90;;;;;;5053351;28;20483;-57
2021/08/02 04:32:03;;;;;;;12.73;8.13;;;13.30;99.90;;;;;;5053268;28;20501;-57
2021/08/02 04:34:30;;;;;;;10.73;7.80;;;13.40;99.90;;;;;;5051934;28;20448;-57
2021/08/02 04:36:57;;;;;;;11.27;7.10;;;13.50;99.90;;;;;;5053289;28;20451;-57
2021/08/02 04:39:25;;;;;;;9.27;6.90;;;13.60;99.90;;;;;;5053352;28;20942;-57
2021/08/02 04:41:52;;;;;;;15.87;9.27;;;13.70;99.90;;;;;;5052737;28;20447;-58
2021/08/02 04:44:19;;;;;;;15.30;9.30;;;13.80;99.90;;;;;;5052939;28;20493;-57
2021/08/02 04:46:46;;;;;;;12.27;8.60;;;13.70;99.90;;;;;;5052376;28;20478;-57
2021/08/02 04:49:13;;;;;;;13.53;8.90;;;13.70;99.90;;;;;;5052284;28;20455;-57
2021/08/02 04:51:40;;;;;;;11.60;7.10;;;13.70;99.90;;;;;;5052742;28;20860;-58
2021/08/02 04:54:07;;;;;;;10.13;6.90;;;13.90;99.90;;;;;;5052867;28;20451;-58
2021/08/02 04:56:36;;;;;;;8.67;5.93;;;14.10;99.90;;;;;;5052714;28;20864;-58
2021/08/02 04:59:03;;;;;;;13.23;8.87;;;14.50;99.90;;;;;;5053010;28;20880;-58
2021/08/02 05:01:30;;;;;;;14.93;9.53;;;15.10;99.90;;;;;;5049546;28;21277;-58
2021/08/02 05:03:57;;;;;;;12.83;8.93;;;15.60;99.90;;;;;;5051074;28;20509;-58
2021/08/02 05:06:24;;;;;;;10.67;7.83;;;16.30;99.90;;;;;;5039226;28;20452;-58
2021/08/02 05:08:51;;;;;;;11.57;8.40;;;16.80;99.90;;;;;;5032996;28;20449;-58
2021/08/02 05:11:18;;;;;;;13.63;8.13;;;17.10;99.90;;;;;;5044925;28;20541;-58
2021/08/02 05:13:46;;;;;;;8.10;6.40;;;17.60;99.90;;;;;;5052436;28;20456;-58
2021/08/02 05:16:13;;;;;;;8.43;5.47;;;17.60;99.90;;;;;;5052577;28;20452;-58
2021/08/02 05:18:40;;;;;;;7.60;6.10;;;17.90;99.90;;;;;;5052138;28;20501;-58
2021/08/02 05:21:07;;;;;;;5.67;4.80;;;18.20;99.90;;;;;;5051943;28;20475;-58
2021/08/02 05:23:34;;;;;;;5.37;4.77;;;18.20;99.90;;;;;;5052707;28;20832;-58
2021/08/02 05:26:02;;;;;;;6.60;4.27;;;18.00;99.90;;;;;;5052295;28;20456;-58
2021/08/02 05:28:29;;;;;;;5.27;4.20;;;18.70;99.90;;;;;;5052256;28;20444;-58
2021/08/02 05:30:57;;;;;;;5.87;5.10;;;19.30;99.90;;;;;;5051674;28;20858;-58
2021/08/02 05:33:24;;;;;;;4.80;4.30;;;19.50;99.90;;;;;;5052024;28;20447;-59
2021/08/02 05:35:51;;;;;;;4.03;3.70;;;19.50;99.90;;;;;;5050372;28;20451;-58
2021/08/02 05:38:18;;;;;;;4.10;3.40;;;19.60;99.90;;;;;;5052154;28;20949;-58
2021/08/02 05:40:45;;;;;;;5.10;4.60;;;19.30;99.90;;;;;;5050534;28;20879;-58
2021/08/02 05:43:13;;;;;;;6.40;5.30;;;18.60;99.90;;;;;;5033962;28;20445;-58
2021/08/02 05:45:40;;;;;;;8.07;6.53;;;17.90;99.90;;;;;;5032565;28;20445;-58
2021/08/02 05:48:08;;;;;;;8.10;6.37;;;17.50;99.90;;;;;;5050503;28;21035;-58
2021/08/02 05:50:35;;;;;;;8.03;6.40;;;17.00;99.90;;;;;;5032101;28;21047;-58
2021/08/02 05:53:02;;;;;;;10.00;7.73;;;16.70;99.90;;;;;;5032150;28;20518;-58
2021/08/02 05:55:29;;;;;;;10.10;7.43;;;16.40;99.90;;;;;;5032454;28;20510;-58
2021/08/02 05:57:56;;;;;;;8.97;7.37;;;16.40;99.90;;;;;;5031605;28;20440;-58
2021/08/02 06:00:23;;;;;;;10.23;7.60;;;16.30;99.90;;;;;;5040172;28;20488;-57
2021/08/02 06:02:50;;;;;;;12.50;8.33;;;16.30;99.90;;;;;;5043982;28;20452;-58
2021/08/02 06:05:19;;;;;;;13.33;8.90;;;16.10;99.90;;;;;;5033734;28;20440;-57
2021/08/02 06:07:46;;;;;;;11.50;8.30;;;16.30;99.90;;;;;;5032119;28;20449;-57
2021/08/02 06:10:14;;;;;;;12.70;9.17;;;16.00;99.90;;;;;;5030625;28;21199;-57
2021/08/02 06:12:41;;;;;;;11.73;8.53;;;15.80;99.90;;;;;;5031147;28;20884;-57
2021/08/02 06:15:10;;;;;;;14.23;9.60;;;15.70;99.90;;;;;;5031463;28;20876;-57
2021/08/02 06:17:37;;;;;;;15.10;9.97;;;15.70;99.90;;;;;;5033906;28;20450;-57
2021/08/02 06:20:05;;;;;;;14.50;9.70;;;15.70;99.90;;;;;;5031827;28;20530;-58
2021/08/02 06:22:34;;;;;;;12.30;9.00;;;15.80;99.90;;;;;;5040675;28;20445;-57
2021/08/02 06:25:01;;;;;;;15.80;9.67;;;16.00;99.90;;;;;;5031125;28;20456;-58
2021/08/02 06:27:31;;;;;;;12.27;9.20;;;16.10;99.90;;;;;;5030987;28;20502;-58
2021/08/02 06:29:58;;;;;;;13.57;9.47;;;16.10;99.90;;;;;;5030843;28;21229;-57
2021/08/02 06:32:25;;;;;;;11.40;8.17;;;16.20;99.90;;;;;;5031055;28;20454;-57
2021/08/02 06:34:53;;;;;;;11.00;7.90;;;16.40;99.90;;;;;;5031379;28;20469;-58
2021/08/02 06:37:22;;;;;;;11.40;8.40;;;16.50;99.90;;;;;;5042853;28;20447;-58
2021/08/02 06:39:50;;;;;;;11.57;7.83;;;16.70;99.90;;;;;;5030964;28;21002;-58
2021/08/02 06:42:17;;;;;;;9.90;7.50;;;16.70;99.90;;;;;;5049487;28;20796;-58
2021/08/02 06:44:44;;;;;;;9.53;7.40;;;16.90;99.90;;;;;;5049351;28;20501;-58
2021/08/02 06:47:11;;;;;;;9.20;7.13;;;16.80;99.90;;;;;;5048320;28;20453;-58
2021/08/02 06:49:39;;;;;;;13.17;7.77;;;17.00;99.90;;;;;;5035001;28;20514;-58
2021/08/02 06:52:06;;;;;;;9.17;6.70;;;17.30;99.90;;;;;;5048554;28;20479;-58
2021/08/02 06:54:33;;;;;;;7.00;5.60;;;17.60;99.90;;;;;;5047686;28;20445;-58
2021/08/02 06:57:01;;;;;;;7.97;6.73;;;17.60;99.90;;;;;;5030947;28;20441;-58
2021/08/02 06:59:28;;;;;;;6.50;5.43;;;17.40;99.90;;;;;;5030744;28;20456;-58
2021/08/02 07:01:55;;;;;;;7.50;6.13;;;17.40;99.90;;;;;;5030987;28;20951;-58
2021/08/02 07:04:22;;;;;;;9.13;6.50;;;17.30;99.90;;;;;;5031279;28;20444;-58
2021/08/02 07:06:49;;;;;;;7.33;6.20;;;17.30;99.90;;;;;;5049653;28;20945;-58
2021/08/02 07:09:16;;;;;;;7.27;5.90;;;17.40;99.90;;;;;;5049845;28;20512;-58
2021/08/02 07:11:43;;;;;;;8.83;5.67;;;17.70;99.90;;;;;;5053141;28;20515;-58
2021/08/02 07:14:12;;;;;;;6.37;5.47;;;17.80;99.90;;;;;;5053025;28;20504;-58
2021/08/02 07:16:39;;;;;;;10.47;5.90;;;17.90;99.90;;;;;;5053537;28;20531;-58
2021/08/02 07:19:06;;;;;;;8.40;6.30;;;17.80;99.90;;;;;;5051236;28;20456;-58
2021/08/02 07:21:33;;;;;;;7.50;5.63;;;18.00;99.90;;;;;;5045693;28;20469;-58
2021/08/02 07:24:00;;;;;;;8.20;6.10;;;18.20;99.90;;;;;;5043197;28;20503;-58
2021/08/02 07:26:28;;;;;;;6.63;5.63;;;18.20;99.90;;;;;;5034763;28;21103;-58
2021/08/02 07:28:58;;;;;;;8.43;5.97;;;18.40;99.90;;;;;;5052941;28;20473;-58
2021/08/02 07:31:26;;;;;;;7.00;5.90;;;18.50;99.90;;;;;;5054684;28;20574;-58
2021/08/02 07:33:53;;;;;;;7.57;6.27;;;18.70;99.90;;;;;;5054362;28;20451;-58
2021/08/02 07:36:21;;;;;;;7.73;6.10;;;18.70;99.90;;;;;;5036844;28;20510;-58
2021/08/02 07:38:48;;;;;;;7.33;5.80;;;18.90;99.90;;;;;;5034796;28;20901;-58
2021/08/02 07:41:15;;;;;;;8.60;5.63;;;19.20;99.90;;;;;;5054027;28;20521;-58
2021/08/02 07:43:44;;;;;;;8.07;5.43;;;19.40;99.90;;;;;;5054313;28;20448;-58
2021/08/02 07:46:11;;;;;;;6.60;5.13;;;20.00;99.90;;;;;;5053767;28;20447;-58
2021/08/02 07:48:39;;;;;;;6.67;5.20;;;20.50;99.90;;;;;;5041249;28;20452;-58
2021/08/02 07:51:07;;;;;;;7.87;5.33;;;20.90;99.90;;;;;;5050099;28;20544;-59
2021/08/02 07:53:34;;;;;;;5.63;4.80;;;20.80;99.90;;;;;;5053735;28;21011;-58
2021/08/02 07:56:01;;;;;;;5.27;4.40;;;21.70;99.90;;;;;;5050791;28;20464;-58
2021/08/02 07:58:28;;;;;;;5.43;4.93;;;22.30;99.90;;;;;;5052767;28;20843;-58
2021/08/02 08:00:55;;;;;;;5.10;4.30;;;22.70;99.90;;;;;;5052706;28;20468;-59
2021/08/02 08:03:22;;;;;;;7.63;5.03;;;23.40;99.90;;;;;;5052622;28;20876;-58
2021/08/02 08:05:51;;;;;;;5.27;4.70;;;24.30;99.90;;;;;;5034301;28;20452;-59
2021/08/02 08:08:20;;;;;;;10.00;4.90;;;25.00;99.90;;;;;;5049042;28;20448;-58
2021/08/02 08:10:47;;;;;;;5.03;4.20;;;25.80;99.90;;;;;;5048749;28;20485;-59
2021/08/02 08:13:14;;;;;;;9.93;4.50;;;25.20;99.90;;;;;;5053043;28;20458;-59
2021/08/02 08:15:42;;;;;;;4.77;4.03;;;25.40;99.90;;;;;;5053795;28;20463;-58
2021/08/02 08:18:09;;;;;;;5.90;4.90;;;25.80;99.90;;;;;;5053934;28;20443;-58
2021/08/02 08:20:36;;;;;;;4.70;4.20;;;24.40;99.90;;;;;;5052253;28;20525;-59
2021/08/02 08:23:04;;;;;;;4.30;3.90;;;24.50;99.90;;;;;;5052820;28;20476;-59
2021/08/02 08:25:31;;;;;;;5.40;4.27;;;24.30;99.90;;;;;;5052857;28;20870;-59
2021/08/02 08:27:58;;;;;;;4.40;4.00;;;25.10;99.90;;;;;;5049884;28;20509;-59
2021/08/02 08:30:27;;;;;;;4.57;3.80;;;25.70;99.90;;;;;;5053097;28;20521;-60
2021/08/02 08:32:54;;;;;;;5.07;3.50;;;26.50;99.90;;;;;;5053175;28;20491;-59
2021/08/02 08:35:22;;;;;;;4.33;3.93;;;26.60;99.90;;;;;;5053309;28;20961;-59
2021/08/02 08:37:49;;;;;;;3.50;3.20;;;25.70;99.90;;;;;;5050239;28;20475;-59
2021/08/02 08:40:17;;;;;;;3.43;3.13;;;25.80;99.90;;;;;;5047671;28;20993;-59
2021/08/02 08:42:46;;;;;;;3.73;3.43;;;25.50;99.90;;;;;;5053497;28;20540;-59
2021/08/02 08:45:14;;;;;;;3.50;3.20;;;25.00;99.90;;;;;;5057202;28;20539;-58
2021/08/02 08:47:41;;;;;;;3.70;3.40;;;24.90;99.90;;;;;;5053075;28;20456;-58
2021/08/02 08:50:10;;;;;;;3.60;3.27;;;24.70;99.90;;;;;;5053538;28;20509;-59
2021/08/02 08:52:38;;;;;;;3.70;3.40;;;23.80;99.90;;;;;;5051896;28;20518;-58
2021/08/02 08:55:07;;;;;;;3.73;3.30;;;23.90;99.90;;;;;;5050626;28;20467;-58
2021/08/02 08:57:35;;;;;;;3.90;3.50;;;23.70;99.90;;;;;;5051145;28;20444;-59
2021/08/02 09:00:02;;;;;;;5.57;3.70;;;23.50;99.90;;;;;;5051226;28;20537;-59
2021/08/02 09:02:31;;;;;;;3.78;3.40;;;23.30;99.90;;;;;;5048308;28;20498;-59
2021/08/02 09:05:00;;;;;;;3.63;3.33;;;24.00;99.90;;;;;;5050869;28;20255;-59
2021/08/02 09:07:35;;;;;;;4.23;3.17;;;24.10;99.90;;;;;;5047164;28;21020;-59
2021/08/02 09:10:04;;;;;;;3.37;2.90;;;23.90;99.90;;;;;;5034927;28;20962;-59
2021/08/02 09:12:32;;;;;;;2.93;2.63;;;24.30;99.90;;;;;;5032295;28;20603;-58
2021/08/02 09:15:03;;;;;;;5.17;3.33;;;23.40;99.90;;;;;;5032363;28;20475;-58
2021/08/02 09:17:32;;;;;;;4.20;3.13;;;22.60;99.90;;;;;;5043197;28;20765;-59
2021/08/02 09:19:59;;;;;;;4.03;3.30;;;23.50;99.90;;;;;;5067544;22;20566;-53
2021/08/02 09:22:28;;;;;;;4.13;3.33;;;23.80;99.90;;;;;;5069962;28;20513;-52
2021/08/02 09:25:05;;;;;;;4.10;3.73;;;24.50;99.90;;;;;;5072293;28;20492;-52
2021/08/02 09:27:33;;;;;;;4.40;4.00;;;25.40;99.90;;;;;;5066431;28;20444;-52
2021/08/02 09:30:19;;;;;;;4.47;3.90;;;24.30;99.90;;;;;;5052027;28;20443;-52
2021/08/02 09:32:51;;;;;;;4.90;3.67;;;22.70;99.90;;;;;;5050620;28;20629;-52
2021/08/02 09:35:33;;;;;;;8.63;4.40;;;22.10;99.90;;;;;;5060607;28;20501;-52
2021/08/02 09:38:02;;;;;;;3.97;3.50;;;20.60;99.90;;;;;;5062789;28;20527;-50
2021/08/02 09:40:37;;;;;;;3.60;3.30;;;20.60;99.90;;;;;;5052021;28;20555;-52
2021/08/02 09:43:04;;;;;;;3.50;3.20;;;21.50;99.90;;;;;;5051545;28;20484;-52
2021/08/02 09:45:42;;;;;;;3.20;2.90;;;22.20;99.90;;;;;;5052017;28;20493;-51
2021/08/02 09:48:10;;;;;;;2.83;2.57;;;22.40;99.90;;;;;;5051658;28;20512;-51
2021/08/02 09:50:37;;;;;;;3.60;3.23;;;22.60;99.90;;;;;;5069012;28;20555;-52
2021/08/02 09:53:04;;;;;;;3.40;3.10;;;22.90;99.90;;;;;;5053563;28;20479;-52
2021/08/02 09:55:31;;;;;;;4.10;3.47;;;23.20;99.90;;;;;;5051119;28;20513;-52
2021/08/02 09:57:58;;;;;;;3.33;3.03;;;22.50;99.90;;;;;;5050968;28;20464;-51
2021/08/02 10:00:25;;;;;;;4.70;2.67;;;21.20;99.90;;;;;;5051541;28;20467;-52
2021/08/02 10:02:53;;;;;;;3.40;3.10;;;21.10;99.90;;;;;;5051481;28;20859;-51
2021/08/02 10:05:21;;;;;;;4.23;3.60;;;21.10;99.90;;;;;;5054672;28;20450;-52
2021/08/02 10:07:49;;;;;;;3.90;3.47;;;20.80;99.90;;;;;;5064476;28;20458;-52
2021/08/02 10:10:17;;;;;;;4.40;3.47;;;20.80;99.90;;;;;;5051680;28;20507;-51
2021/08/02 10:12:46;;;;;;;3.57;3.27;;;20.80;99.90;;;;;;5051140;28;20494;-51
2021/08/02 10:15:15;;;;;;;3.53;3.23;;;20.50;99.90;;;;;;5051412;28;20856;-51
2021/08/02 10:17:47;;;;;;;4.03;3.37;;;20.50;99.90;;;;;;5051001;28;20506;-52
2021/08/02 10:20:23;;;;;;;5.10;3.43;;;20.80;99.90;;;;;;5051250;28;20912;-51
2021/08/02 10:22:51;;;;;;;5.23;3.70;;;21.40;99.90;;;;;;5063152;28;20529;-52
2021/08/02 10:25:18;;;;;;;4.10;3.60;;;20.80;99.90;;;;;;5071509;28;20529;-51
2021/08/02 10:27:45;;;;;;;4.80;3.57;;;20.70;99.90;;;;;;5065344;28;20448;-51
2021/08/02 10:30:23;;;;;;;4.63;3.40;;;20.80;99.90;;;;;;5051080;28;20526;-51
2021/08/02 10:32:55;;;;;;;6.83;3.80;;;20.80;99.90;;;;;;5050790;28;20479;-52
2021/08/02 10:35:34;;;;;;;4.47;3.60;;;20.40;99.90;;;;;;5051174;28;20459;-51
2021/08/02 10:38:03;;;;;;;4.57;3.37;;;21.00;99.90;;;;;;5049992;28;20467;-51
2021/08/02 10:40:30;;;;;;;3.90;3.27;;;21.30;99.90;;;;;;5051335;28;20487;-52
2021/08/02 10:42:57;;;;;;;5.60;4.10;;;21.30;99.90;;;;;;5051001;28;20443;-52
2021/08/02 10:45:31;;;;;;;4.67;3.00;;;21.30;99.90;;;;;;5053988;28;20550;-50
2021/08/02 10:47:59;;;;;;;3.53;3.23;;;21.60;99.90;;;;;;5054843;28;20517;-51
2021/08/02 10:50:28;;;;;;;5.20;4.30;;;22.10;99.90;;;;;;5054435;28;20467;-52
2021/08/02 10:52:56;;;;;;;4.47;3.40;;;22.00;99.90;;;;;;5034876;28;20530;-52
2021/08/02 10:55:25;;;;;;;5.30;3.77;;;22.40;99.90;;;;;;5035129;28;20589;-51
2021/08/02 10:57:59;;;;;;;4.50;3.00;;;22.60;99.90;;;;;;5039255;28;20455;-52
2021/08/02 11:00:27;;;;;;;4.13;3.07;;;23.10;99.90;;;;;;5055062;28;20471;-52
2021/08/02 11:02:55;;;;;;;4.27;3.37;;;23.00;99.90;;;;;;5064795;28;20755;-51
2021/08/02 11:05:22;;;;;;;3.53;3.13;;;22.70;99.90;;;;;;5075187;28;20447;-52
2021/08/02 11:07:49;;;;;;;5.40;3.50;;;22.50;99.90;;;;;;5070658;28;20448;-52
2021/08/02 11:10:18;;;;;;;4.60;3.60;;;22.70;99.90;;;;;;5054608;28;20537;-52
2021/08/02 11:12:46;;;;;;;4.20;3.27;;;23.10;99.90;;;;;;5054596;28;20479;-52
2021/08/02 11:15:14;;;;;;;3.83;3.17;;;23.30;99.90;;;;;;5054914;28;20543;-52
2021/08/02 11:17:49;;;;;;;4.10;3.60;;;23.40;99.90;;;;;;5054760;28;20444;-52
2021/08/02 11:20:16;;;;;;;4.97;3.80;;;23.40;99.90;;;;;;5073678;28;20482;-52
2021/08/02 11:22:51;;;;;;;3.87;3.57;;;23.30;99.90;;;;;;5053393;28;20938;-53
2021/08/02 11:25:25;;;;;;;4.43;3.57;;;22.90;99.90;;;;;;5053465;28;20443;-52
2021/08/02 11:27:53;;;;;;;5.60;3.80;;;22.80;99.90;;;;;;5053245;28;20873;-52
2021/08/02 11:30:21;;;;;;;4.33;3.10;;;22.40;99.90;;;;;;5053115;28;20533;-52
2021/08/02 11:32:48;;;;;;;5.10;4.00;;;22.60;99.90;;;;;;5052801;28;20525;-52
2021/08/02 11:35:16;;;;;;;4.10;3.60;;;22.80;99.90;;;;;;5054787;28;20494;-52
2021/08/02 11:37:50;;;;;;;3.93;3.53;;;23.00;99.90;;;;;;5034433;28;20946;-52
2021/08/02 11:40:18;;;;;;;4.50;3.90;;;22.40;99.90;;;;;;5043869;28;20546;-52
2021/08/02 11:42:51;;;;;;;4.27;3.87;;;21.90;99.90;;;;;;5054122;28;20439;-52
2021/08/02 11:45:19;;;;;;;4.47;3.77;;;21.80;99.90;;;;;;5054065;28;21020;-52
2021/08/02 11:47:47;;;;;;;4.47;3.40;;;21.50;99.90;;;;;;5054276;28;20497;-51
2021/08/02 11:50:14;;;;;;;5.17;4.00;;;21.50;99.90;;;;;;5054138;28;20529;-54
2021/08/02 11:52:43;;;;;;;3.70;3.40;;;21.30;99.90;;;;;;5066480;28;21087;-53
2021/08/02 11:55:12;;;;;;;4.43;3.37;;;21.00;99.90;;;;;;5074012;28;20486;-54
2021/08/02 11:57:40;;;;;;;5.03;3.60;;;20.90;99.90;;;;;;5073485;28;20970;-53
2021/08/02 12:00:15;;;;;;;4.50;3.83;;;21.00;99.90;;;;;;5074000;28;21065;-52
2021/08/02 12:02:44;;;;;;;3.57;3.27;;;20.60;99.90;;;;;;5055811;28;20443;-53
2021/08/02 12:05:22;;;;;;;4.63;3.17;;;20.90;99.90;;;;;;5053834;28;20448;-53
2021/08/02 12:07:49;;;;;;;3.50;3.13;;;21.20;99.90;;;;;;5053980;28;20459;-54
2021/08/02 12:10:18;;;;;;;3.60;3.00;;;21.40;99.90;;;;;;5053799;28;20475;-53
2021/08/02 12:12:56;;;;;;;3.63;3.33;;;21.90;99.90;;;;;;5053591;28;20486;-54
2021/08/02 12:15:25;;;;;;;3.30;3.00;;;22.40;99.90;;;;;;5053829;28;20521;-53
2021/08/02 12:17:53;;;;;;;3.50;3.20;;;22.70;99.90;;;;;;5053066;28;20883;-53
2021/08/02 12:20:30;;;;;;;5.43;4.30;;;22.40;99.90;;;;;;5053453;28;20535;-53
2021/08/02 12:22:57;;;;;;;4.63;3.47;;;21.90;99.90;;;;;;5053156;28;20501;-53
2021/08/02 12:25:35;;;;;;;4.20;3.60;;;22.20;99.90;;;;;;5053372;28;20505;-53
2021/08/02 12:28:02;;;;;;;3.40;3.00;;;22.20;99.90;;;;;;5033600;28;20458;-53
2021/08/02 12:30:30;;;;;;;3.90;3.03;;;22.30;99.90;;;;;;5042431;28;20476;-53
2021/08/02 12:32:57;;;;;;;4.57;3.50;;;22.40;99.90;;;;;;5053129;28;20996;-53
2021/08/02 12:35:25;;;;;;;3.90;3.50;;;22.70;99.90;;;;;;5053173;28;20501;-54
2021/08/02 12:37:52;;;;;;;3.57;3.20;;;22.80;99.90;;;;;;5052973;28;20448;-53
2021/08/02 12:40:19;;;;;;;3.73;3.33;;;22.60;99.90;;;;;;5054330;28;20517;-54
2021/08/02 12:42:48;;;;;;;3.63;3.33;;;22.60;99.90;;;;;;5052878;28;20454;-53
2021/08/02 12:45:17;;;;;;;4.83;3.80;;;22.50;99.90;;;;;;5053397;28;20443;-54
2021/08/02 12:47:46;;;;;;;4.60;3.57;;;22.20;99.90;;;;;;5053290;28;20505;-53
2021/08/02 12:50:14;;;;;;;5.37;3.80;;;22.10;99.90;;;;;;5053023;28;20468;-53